createdAt,value
2017-02-19T00:01:46.157Z,5.87
2017-02-19T00:04:09.439Z,5.64
2017-02-19T00:06:33.293Z,5.65
2017-02-19T00:09:03.333Z,5.88
2017-02-19T00:11:26.693Z,5.81
2017-02-19T00:13:56.309Z,5.61
2017-02-19T00:16:20.308Z,5.87
2017-02-19T00:18:43.370Z,6.07
2017-02-19T00:21:06.824Z,6.07
2017-02-19T00:23:30.077Z,6.09
2017-02-19T00:25:54.199Z,6.02
2017-02-19T00:28:17.108Z,5.79
2017-02-19T00:29:54.066Z,5.7
2017-02-19T00:32:18.724Z,5.58
2017-02-19T00:34:43.411Z,5.56
2017-02-19T00:37:06.562Z,5.58
2017-02-19T00:39:31.767Z,5.56
2017-02-19T00:41:55.931Z,5.84
2017-02-19T00:44:21.270Z,5.79
2017-02-19T00:46:45.647Z,5.72
2017-02-19T00:49:10.605Z,5.97
2017-02-19T00:51:34.303Z,6.09
2017-02-19T00:53:58.538Z,6.19
2017-02-19T00:56:22.396Z,6.32
2017-02-19T00:58:47.795Z,6.44
2017-02-19T01:01:12.150Z,6.57
2017-02-19T01:06:06.069Z,6.43
2017-02-19T01:08:31.820Z,6.57
2017-02-19T01:10:55.948Z,6.6
2017-02-19T01:13:20.355Z,6.53
2017-02-19T01:15:44.150Z,6.53
2017-02-19T01:18:08.384Z,6.36
2017-02-19T01:20:32.262Z,6.36
2017-02-19T01:23:04.247Z,6.5
2017-02-19T01:25:34.330Z,6.59
2017-02-19T01:28:06.423Z,6.54
2017-02-19T01:30:29.535Z,6.54
2017-02-19T01:32:54.324Z,6.49
2017-02-19T01:35:18.747Z,6.29
2017-02-19T01:37:56.250Z,6.52
2017-02-19T01:40:19.710Z,6.34
2017-02-19T01:42:43.921Z,6.36
2017-02-19T01:59:40.920Z,6.15
2017-02-19T02:02:04.313Z,6.25
2017-02-19T02:04:29.081Z,6.35
2017-02-19T02:06:53.152Z,6.34
2017-02-19T02:09:18.790Z,6.44
2017-02-19T02:11:42.879Z,6.47
2017-02-19T02:14:05.968Z,6.36
2017-02-19T02:16:37.208Z,6.32
2017-02-19T02:19:01.405Z,6.17
2017-02-19T02:21:27.617Z,6.2
2017-02-19T02:23:53.312Z,6.06
2017-02-19T02:26:17.146Z,6.16
2017-02-19T02:28:40.612Z,6.2
2017-02-19T02:31:04.025Z,6.26
2017-02-19T02:33:28.366Z,6.19
2017-02-19T02:35:42.858Z,6.09
2017-02-19T02:38:07.824Z,6.19
2017-02-19T02:40:32.758Z,6.06
2017-02-19T02:42:56.261Z,6.07
2017-02-19T02:45:21.746Z,6.07
2017-02-19T02:47:45.174Z,5.8
2017-02-19T02:50:08.205Z,5.83
2017-02-19T02:52:32.499Z,5.88
2017-02-19T02:54:55.491Z,5.69
2017-02-19T02:57:18.746Z,5.72
2017-02-19T02:59:42.097Z,5.72
2017-02-19T03:02:05.213Z,5.49
2017-02-19T03:04:29.710Z,5.38
2017-02-19T03:06:53.177Z,5.36
2017-02-19T03:09:17.811Z,5.36
2017-02-19T03:11:41.298Z,5.46
2017-02-19T03:14:06.340Z,5.55
2017-02-19T03:16:29.493Z,5.18
2017-02-19T03:18:46.547Z,4.86
2017-02-19T03:21:09.864Z,4.79
2017-02-19T03:23:34.275Z,4.86
2017-02-19T03:25:50.225Z,4.87
2017-02-19T03:28:15.407Z,4.83
2017-02-19T03:30:45.519Z,4.92
2017-02-19T03:33:12.443Z,5.04
2017-02-19T03:35:36.042Z,5.07
2017-02-19T03:38:02.620Z,5.13
2017-02-19T03:40:39.798Z,4.95
2017-02-19T03:43:05.189Z,4.61
2017-02-19T03:45:30.609Z,4.34
2017-02-19T03:47:54.108Z,4.56
2017-02-19T03:50:17.351Z,4.32
2017-02-19T03:52:42.109Z,4.14
2017-02-19T03:55:13.494Z,3.99
2017-02-19T03:57:37.665Z,4.06
2017-02-19T04:00:11.297Z,4.14
2017-02-19T04:02:35.745Z,4.21
2017-02-19T04:04:59.918Z,4.57
2017-02-19T04:07:30.689Z,4.71
2017-02-19T04:09:32.575Z,4.82
2017-02-19T04:12:11.539Z,4.78
2017-02-19T04:14:37.606Z,4.76
2017-02-19T04:17:01.452Z,4.63
2017-02-19T04:19:26.873Z,4.7
2017-02-19T04:21:50.108Z,4.63
2017-02-19T04:24:13.603Z,4.18
2017-02-19T04:26:36.237Z,4.38
2017-02-19T04:28:59.606Z,4.3
2017-02-19T04:31:24.741Z,4.39
2017-02-19T04:33:50.202Z,4.2
2017-02-19T04:36:13.380Z,4.32
2017-02-19T04:38:36.238Z,4.45
2017-02-19T04:40:59.427Z,4.53
2017-02-19T04:43:22.377Z,4.14
2017-02-19T04:45:48.633Z,4.14
2017-02-19T04:48:12.664Z,3.99
2017-02-19T04:50:36.286Z,3.85
2017-02-19T04:52:59.151Z,3.77
2017-02-19T04:55:27.606Z,3.74
2017-02-19T04:57:50.268Z,4.07
2017-02-19T05:00:08.414Z,3.73
2017-02-19T05:02:32.986Z,3.88
2017-02-19T05:04:56.931Z,3.94
2017-02-19T05:07:21.003Z,4.06
2017-02-19T05:09:47.592Z,3.84
2017-02-19T05:12:14.561Z,3.81
2017-02-19T05:14:42.218Z,4.03
2017-02-19T05:17:06.275Z,3.95
2017-02-19T05:19:31.469Z,3.74
2017-02-19T05:21:55.591Z,4.04
2017-02-19T05:24:24.971Z,3.82
2017-02-19T05:26:56.854Z,3.82
2017-02-19T05:29:22.663Z,3.88
2017-02-19T05:31:47.390Z,3.76
2017-02-19T05:34:13.493Z,3.58
2017-02-19T05:36:29.767Z,3.77
2017-02-19T05:38:55.054Z,3.66
2017-02-19T05:41:17.915Z,3.61
2017-02-19T05:43:42.045Z,3.49
2017-02-19T05:46:11.781Z,3.59
2017-02-19T05:48:38.283Z,3.73
2017-02-19T05:51:00.970Z,3.71
2017-02-19T05:53:25.961Z,3.68
2017-02-19T05:55:48.828Z,3.4
2017-02-19T05:58:13.089Z,3.59
2017-02-19T06:00:35.456Z,3.67
2017-02-19T06:02:58.325Z,3.64
2017-02-19T06:05:23.358Z,3.66
2017-02-19T06:07:46.742Z,3.64
2017-02-19T06:10:12.029Z,3.55
2017-02-19T06:12:36.164Z,3.52
2017-02-19T06:15:02.368Z,3.66
2017-02-19T06:17:28.398Z,3.84
2017-02-19T06:19:52.778Z,3.66
2017-02-19T06:22:15.756Z,3.86
2017-02-19T06:24:40.013Z,3.67
2017-02-19T06:27:03.265Z,3.55
2017-02-19T06:29:27.259Z,3.4
2017-02-19T06:31:52.305Z,3.52
2017-02-19T06:34:22.358Z,3.78
2017-02-19T06:36:38.408Z,4.06
2017-02-19T06:39:02.596Z,3.92
2017-02-19T06:41:25.846Z,4.2
2017-02-19T06:43:49.051Z,4.36
2017-02-19T06:46:12.159Z,4.36
2017-02-19T06:48:36.277Z,4.21
2017-02-19T06:50:59.612Z,4.49
2017-02-19T06:53:23.688Z,4.49
2017-02-19T06:55:48.330Z,4.48
2017-02-19T06:58:11.638Z,4.18
2017-02-19T07:00:37.316Z,4.79
2017-02-19T07:03:00.205Z,5.8
2017-02-19T07:05:24.802Z,6.72
2017-02-19T07:07:49.621Z,7.37
2017-02-19T07:10:13.099Z,8.75
2017-02-19T07:12:37.451Z,9
2017-02-19T07:14:15.229Z,9.08
2017-02-19T07:16:39.827Z,10.34
2017-02-19T07:19:05.417Z,10.45
2017-02-19T07:21:30.382Z,10.05
2017-02-19T07:23:54.453Z,10.17
2017-02-19T07:26:26.115Z,10.42
2017-02-19T07:28:49.486Z,11.59
2017-02-19T07:31:13.087Z,12.17
2017-02-19T07:33:36.451Z,13.64
2017-02-19T07:36:00.883Z,14.87
2017-02-19T07:38:24.372Z,14.9
2017-02-19T07:40:47.947Z,14.73
2017-02-19T07:43:03.137Z,14.99
2017-02-19T07:45:26.831Z,15.39
2017-02-19T07:47:50.559Z,15.63
2017-02-19T07:50:14.337Z,16.09
2017-02-19T07:52:38.158Z,17.86
2017-02-19T07:55:02.045Z,18.71
2017-02-19T07:57:26.559Z,18.51
2017-02-19T07:59:57.071Z,18.06
2017-02-19T08:02:21.230Z,17.9
2017-02-19T08:04:45.266Z,18.63
2017-02-19T08:07:09.395Z,16.21
2017-02-19T08:09:33.573Z,19.81
2017-02-19T08:11:57.783Z,19.63
2017-02-19T08:14:21.979Z,20.15
2017-02-19T08:16:46.285Z,20.64
2017-02-19T08:19:10.622Z,20.74
2017-02-19T08:21:12.544Z,21.69
2017-02-19T08:23:36.975Z,23.47
2017-02-19T08:26:01.427Z,23.32
2017-02-19T08:28:25.887Z,24.59
2017-02-19T08:30:50.287Z,22.61
2017-02-19T08:33:14.802Z,24.03
2017-02-19T08:35:39.236Z,23.94
2017-02-19T08:38:03.688Z,23.2
2017-02-19T08:40:28.117Z,25.25
2017-02-19T08:42:52.544Z,26.08
2017-02-19T08:45:16.903Z,22.95
2017-02-19T08:47:41.251Z,21.89
2017-02-19T08:50:05.724Z,23.73
2017-02-19T08:52:21.500Z,23.14
2017-02-19T08:54:45.764Z,21.92
2017-02-19T08:57:10.146Z,22.47
2017-02-19T08:59:25.932Z,22.73
2017-02-19T09:01:50.175Z,24.21
2017-02-19T09:04:14.332Z,19.63
2017-02-19T09:06:38.541Z,16.09
2017-02-19T09:09:02.673Z,14.48
2017-02-19T09:11:26.782Z,14.41
2017-02-19T09:13:50.802Z,13.7
2017-02-19T09:16:14.839Z,13.75
2017-02-19T09:18:38.778Z,13.95
2017-02-19T09:21:02.699Z,13.79
2017-02-19T09:23:26.514Z,12.88
2017-02-19T09:25:50.414Z,12.08
2017-02-19T09:28:14.164Z,12.23
2017-02-19T09:30:38.141Z,11.25
2017-02-19T09:33:01.757Z,12.05
2017-02-19T09:35:25.409Z,12.39
2017-02-19T09:37:48.944Z,12.51
2017-02-19T09:40:12.704Z,11.68
2017-02-19T09:42:36.095Z,12.02
2017-02-19T09:44:59.645Z,12.02
2017-02-19T09:47:23.227Z,12.58
2017-02-19T09:49:38.338Z,12.99
2017-02-19T09:52:01.948Z,12.51
2017-02-19T09:54:25.512Z,12.83
2017-02-19T09:56:49.023Z,12
2017-02-19T09:59:13.041Z,11.93
2017-02-19T10:01:24.238Z,12.26
2017-02-19T10:03:48.083Z,10.98
2017-02-19T10:06:11.634Z,10.33
2017-02-19T10:08:35.079Z,10.97
2017-02-19T10:10:58.897Z,11.08
2017-02-19T10:13:22.435Z,10.76
2017-02-19T10:15:46.062Z,10.68
2017-02-19T10:18:09.416Z,10.87
2017-02-19T10:20:25.683Z,9.69
2017-02-19T10:22:49.313Z,10.02
2017-02-19T10:25:12.706Z,9.64
2017-02-19T10:27:36.126Z,9.84
2017-02-19T10:29:59.570Z,10.33
2017-02-19T10:32:22.989Z,10.03
2017-02-19T10:34:46.357Z,9.69
2017-02-19T10:37:09.630Z,9.59
2017-02-19T10:39:32.922Z,9.91
2017-02-19T10:41:56.236Z,10.12
2017-02-19T10:44:19.545Z,10.65
2017-02-19T10:46:42.932Z,11
2017-02-19T10:49:06.293Z,10.68
2017-02-19T10:51:29.669Z,10.15
2017-02-19T10:53:53.014Z,10.51
2017-02-19T10:56:16.417Z,10.18
2017-02-19T10:58:40.183Z,9.76
2017-02-19T11:01:03.459Z,9.94
2017-02-19T11:03:26.850Z,10.36
2017-02-19T11:05:50.336Z,10.51
2017-02-19T11:08:13.705Z,10.8
2017-02-19T11:10:37.047Z,11.56
2017-02-19T11:13:00.508Z,10.9
2017-02-19T11:15:23.793Z,10.92
2017-02-19T11:17:47.323Z,10.53
2017-02-19T11:20:10.915Z,11.4
2017-02-19T11:21:47.610Z,11.76
2017-02-19T11:24:11.178Z,11.74
2017-02-19T11:26:34.543Z,11.48
2017-02-19T11:28:57.902Z,11.23
2017-02-19T11:31:12.862Z,10.68
2017-02-19T11:33:36.102Z,11.33
2017-02-19T11:35:59.462Z,11.34
2017-02-19T11:38:22.868Z,11.31
2017-02-19T11:40:46.219Z,11.34
2017-02-19T11:43:09.574Z,11.26
2017-02-19T11:45:32.920Z,11.67
2017-02-19T11:47:56.303Z,12.08
2017-02-19T11:50:19.666Z,12.45
2017-02-19T11:52:43.031Z,11.52
2017-02-19T11:54:57.982Z,11.59
2017-02-19T11:57:21.406Z,12.11
2017-02-19T11:59:44.693Z,11.67
2017-02-19T12:02:08.158Z,11.77
2017-02-19T12:04:31.525Z,11.93
2017-02-19T12:06:07.776Z,11.89
2017-02-19T12:08:31.827Z,12.18
2017-02-19T12:10:57.429Z,12.26
2017-02-19T12:13:24.525Z,11.85
2017-02-19T12:15:48.559Z,12.29
2017-02-19T12:18:15.086Z,11.99
2017-02-19T12:20:39.784Z,11.96
2017-02-19T12:23:05.493Z,11.48
2017-02-19T12:25:30.247Z,11.65
2017-02-19T12:27:54.207Z,11.93
2017-02-19T12:30:19.667Z,11.83
2017-02-19T12:32:51.734Z,11.33
2017-02-19T12:35:16.031Z,11.93
2017-02-19T12:37:41.562Z,12.25
2017-02-19T12:39:57.604Z,11.35
2017-02-19T12:42:21.494Z,11.35
2017-02-19T12:44:45.581Z,11.88
2017-02-19T12:47:09.473Z,11.3
2017-02-19T12:49:32.782Z,11.33
2017-02-19T12:51:56.528Z,11.44
2017-02-19T12:54:20.714Z,11.45
2017-02-19T12:56:45.467Z,11.31
2017-02-19T12:59:00.295Z,11.76
2017-02-19T13:01:24.404Z,11.85
2017-02-19T13:03:48.542Z,11.34
2017-02-19T13:06:12.515Z,11.93
2017-02-19T13:10:20.010Z,11.6
2017-02-19T13:12:44.867Z,12.08
2017-02-19T13:15:10.556Z,12.36
2017-02-19T13:17:43.550Z,12.87
2017-02-19T13:20:07.239Z,12.43
2017-02-19T13:22:32.472Z,12.25
2017-02-19T13:24:58.354Z,11.55
2017-02-19T13:27:27.361Z,11.8
2017-02-19T13:29:55.028Z,11.83
2017-02-19T13:32:22.612Z,11.76
2017-02-19T13:34:49.924Z,11.7
2017-02-19T13:37:20.875Z,11.96
2017-02-19T13:39:42.963Z,12.26
2017-02-19T13:42:07.450Z,12.51
2017-02-19T13:44:30.530Z,12.57
2017-02-19T13:46:55.387Z,12.3
2017-02-19T13:49:19.839Z,12.08
2017-02-19T13:51:43.548Z,12.66
2017-02-19T13:54:07.327Z,13.03
2017-02-19T13:56:31.487Z,12.57
2017-02-19T13:58:55.144Z,12.39
2017-02-19T14:01:19.231Z,12.53
2017-02-19T14:03:43.161Z,12.58
2017-02-19T14:06:08.109Z,12.69
2017-02-19T14:08:32.593Z,12.48
2017-02-19T14:10:56.718Z,12.66
2017-02-19T14:13:20.528Z,12.26
2017-02-19T14:15:51.720Z,12.39
2017-02-19T14:18:15.497Z,12.21
2017-02-19T14:20:39.444Z,12.1
2017-02-19T14:23:03.229Z,12.23
2017-02-19T14:25:35.033Z,12.2
2017-02-19T14:28:00.719Z,12.23
2017-02-19T14:30:25.185Z,12.02
2017-02-19T14:32:58.532Z,11.89
2017-02-19T14:35:28.017Z,12.2
2017-02-19T14:37:33.855Z,12.15
2017-02-19T14:41:37.139Z,12.29
2017-02-19T14:43:49.363Z,12.33
2017-02-19T14:46:14.345Z,12.03
2017-02-19T14:48:37.930Z,12.21
2017-02-19T14:50:56.988Z,11.91
2017-02-19T14:53:06.923Z,11.68
2017-02-19T14:55:30.678Z,12.02
2017-02-19T14:57:54.342Z,12.39
2017-02-19T15:00:18.526Z,12.21
2017-02-19T15:02:41.939Z,12.32
2017-02-19T15:05:05.665Z,12.63
2017-02-19T15:07:21.269Z,12.39
2017-02-19T15:09:46.760Z,12.23
2017-02-19T15:11:51.278Z,12.51
2017-02-19T15:14:01.583Z,12.68
2017-02-19T15:16:25.372Z,12.73
2017-02-19T15:18:48.963Z,12.36
2017-02-19T15:21:12.670Z,12.35
2017-02-19T15:23:36.470Z,12.29
2017-02-19T15:26:00.706Z,12.39
2017-02-19T15:28:25.285Z,12.44
2017-02-19T15:30:49.760Z,12.61
2017-02-19T15:33:13.851Z,11.88
2017-02-19T15:35:37.371Z,11.99
2017-02-19T15:38:02.472Z,12.03
2017-02-19T15:40:26.202Z,12.05
2017-02-19T15:42:50.977Z,12
2017-02-19T15:45:22.395Z,11.86
2017-02-19T15:47:50.684Z,12.26
2017-02-19T15:53:27.699Z,12.07
2017-02-19T15:56:10.196Z,11.96
2017-02-19T15:58:42.684Z,11.68
2017-02-19T16:00:46.619Z,11.95
2017-02-19T16:03:11.997Z,11.8
2017-02-19T16:05:35.236Z,11.67
2017-02-19T16:07:59.962Z,11.83
2017-02-19T16:10:25.426Z,11.96
2017-02-19T16:12:48.757Z,11.76
2017-02-19T16:15:13.531Z,11.68
2017-02-19T16:17:16.508Z,11.68
2017-02-19T16:19:48.598Z,11.85
2017-02-19T16:28:44.477Z,11.91
2017-02-19T16:31:23.055Z,11.93
2017-02-19T16:41:57.103Z,11.8
2017-02-19T16:44:36.245Z,11.8
2017-02-19T16:47:03.249Z,11.65
2017-02-19T16:49:24.699Z,11.76
2017-02-19T16:51:48.661Z,11.85
2017-02-19T16:54:12.546Z,11.55
2017-02-19T16:56:38.271Z,11.33
2017-02-19T16:59:01.421Z,11.43
2017-02-19T17:01:27.310Z,11.37
2017-02-19T17:03:51.188Z,11.23
2017-02-19T17:06:14.437Z,11.18
2017-02-19T17:08:37.706Z,11.37
2017-02-19T17:11:03.922Z,11.34
2017-02-19T17:13:27.375Z,11.51
2017-02-19T17:15:50.851Z,11.48
2017-02-19T17:18:14.299Z,11.59
2017-02-19T17:20:37.711Z,11.52
2017-02-19T17:23:02.074Z,11.52
2017-02-19T17:25:25.543Z,11.18
2017-02-19T17:27:48.996Z,11.19
2017-02-19T17:30:13.684Z,11.08
2017-02-19T17:32:36.948Z,11.2
2017-02-19T17:35:00.413Z,11.37
2017-02-19T17:37:23.874Z,11.35
2017-02-19T17:39:47.475Z,11.44
2017-02-19T17:42:10.943Z,11.58
2017-02-19T17:44:34.338Z,11.35
2017-02-19T17:46:57.677Z,11.45
2017-02-19T17:49:21.087Z,11.53
2017-02-19T17:51:44.272Z,11.34
2017-02-19T17:54:07.592Z,11.44
2017-02-19T17:56:30.923Z,11.58
2017-02-19T17:58:54.287Z,11.63
2017-02-19T18:01:17.828Z,11.86
2017-02-19T18:03:42.740Z,11.8
2017-02-19T18:06:08.455Z,11.55
2017-02-19T18:08:32.330Z,11.4
2017-02-19T18:10:55.745Z,11.56
2017-02-19T18:13:21.976Z,11.63
2017-02-19T18:15:39.097Z,11.33
2017-02-19T18:18:02.512Z,11.43
2017-02-19T18:20:27.629Z,11.58
2017-02-19T18:22:52.435Z,11.68
2017-02-19T18:25:17.484Z,11.6
2017-02-19T18:27:40.956Z,11.51
2017-02-19T18:30:04.449Z,11.35
2017-02-19T18:32:28.227Z,11.37
2017-02-19T18:34:53.608Z,11.58
2017-02-19T18:37:17.034Z,11.31
2017-02-19T18:39:40.589Z,11.58
2017-02-19T18:42:05.917Z,11.65
2017-02-19T18:44:30.872Z,11.62
2017-02-19T18:46:54.743Z,11.56
2017-02-19T18:48:33.528Z,11.53
2017-02-19T18:50:57.266Z,11.31
2017-02-19T18:53:20.965Z,11.27
2017-02-19T18:55:44.366Z,11.45
2017-02-19T18:58:08.366Z,11.56
2017-02-19T19:00:31.946Z,11.56
2017-02-19T19:02:56.467Z,11.71
2017-02-19T19:05:19.892Z,11.56
2017-02-19T19:07:43.538Z,11.49
2017-02-19T19:10:08.512Z,11.63
2017-02-19T19:12:33.834Z,11.67
2017-02-19T19:14:57.276Z,11.63
2017-02-19T19:17:21.240Z,11.51
2017-02-19T19:19:45.752Z,11.34
2017-02-19T19:22:09.495Z,11.44
2017-02-19T19:24:34.715Z,11.41
2017-02-19T19:27:00.207Z,11.59
2017-02-19T19:29:23.704Z,11.88
2017-02-19T19:31:47.216Z,11.85
2017-02-19T19:34:10.629Z,11.88
2017-02-19T19:36:34.017Z,11.67
2017-02-19T19:38:57.589Z,11.65
2017-02-19T19:41:20.945Z,11.62
2017-02-19T19:43:45.225Z,11.6
2017-02-19T19:46:07.888Z,11.58
2017-02-19T19:48:23.266Z,11.35
2017-02-19T19:50:46.879Z,11.59
2017-02-19T19:53:10.204Z,11.18
2017-02-19T19:55:33.649Z,11.41
2017-02-19T19:57:57.092Z,11.18
2017-02-19T20:00:20.541Z,11.4
2017-02-19T20:02:44.902Z,11.26
2017-02-19T20:05:08.364Z,11.45
2017-02-19T20:07:32.752Z,11.44
2017-02-19T20:09:56.170Z,11.26
2017-02-19T20:12:19.583Z,11.12
2017-02-19T20:14:43.137Z,10.97
2017-02-19T20:17:06.636Z,10.94
2017-02-19T20:19:30.470Z,10.67
2017-02-19T20:21:54.884Z,10.9
2017-02-19T20:24:18.320Z,10.97
2017-02-19T20:26:41.664Z,11.1
2017-02-19T20:29:05.241Z,10.97
2017-02-19T20:31:28.657Z,10.84
2017-02-19T20:33:53.848Z,10.9
2017-02-19T20:36:17.122Z,10.9
2017-02-19T20:38:40.480Z,10.65
2017-02-19T20:41:03.904Z,10.69
2017-02-19T20:43:27.668Z,10.68
2017-02-19T20:45:50.883Z,10.59
2017-02-19T20:48:14.326Z,10.82
2017-02-19T20:50:37.612Z,10.84
2017-02-19T20:53:01.052Z,10.69
2017-02-19T20:55:24.602Z,10.38
2017-02-19T20:57:25.766Z,10.46
2017-02-19T20:59:49.108Z,10.57
2017-02-19T21:02:04.374Z,10.89
2017-02-19T21:04:27.724Z,10.65
2017-02-19T21:06:51.332Z,10.55
2017-02-19T21:09:15.162Z,10.84
2017-02-19T21:11:38.566Z,10.84
2017-02-19T21:14:02.293Z,10.92
2017-02-19T21:16:25.659Z,11.07
2017-02-19T21:18:49.242Z,10.83
2017-02-19T21:21:12.832Z,10.71
2017-02-19T21:23:36.654Z,10.8
2017-02-19T21:26:00.940Z,10.98
2017-02-19T21:28:24.227Z,10.89
2017-02-19T21:30:47.522Z,10.86
2017-02-19T21:33:12.065Z,11.07
2017-02-19T21:35:37.932Z,11.15
2017-02-19T21:38:03.595Z,11.04
2017-02-19T21:40:28.135Z,11.01
2017-02-19T21:42:53.077Z,10.9
2017-02-19T21:45:04.168Z,10.8
2017-02-19T21:47:29.916Z,10.95
2017-02-19T21:49:56.050Z,11.18
2017-02-19T21:52:19.591Z,11.05
2017-02-19T21:54:42.924Z,11.07
2017-02-19T21:57:06.391Z,11.05
2017-02-19T21:59:30.822Z,10.8
2017-02-19T22:01:54.574Z,11.13
2017-02-19T22:04:18.827Z,11.23
2017-02-19T22:06:44.048Z,11.08
2017-02-19T22:09:08.718Z,10.9
2017-02-19T22:11:33.681Z,10.64
2017-02-19T22:13:57.149Z,10.92
2017-02-19T22:16:20.565Z,11.12
2017-02-19T22:18:43.842Z,10.95
2017-02-19T22:20:21.047Z,10.87
2017-02-19T22:22:44.741Z,10.95
2017-02-19T22:25:10.060Z,11.23
2017-02-19T22:27:35.480Z,11.02
2017-02-19T22:29:59.795Z,10.86
2017-02-19T22:32:23.319Z,10.97
2017-02-19T22:34:46.674Z,11.05
2017-02-19T22:37:08.519Z,10.84
2017-02-19T22:39:32.133Z,10.79
2017-02-19T22:41:55.524Z,11.05
2017-02-19T22:44:18.834Z,11.08
2017-02-19T22:46:42.315Z,10.94
2017-02-19T22:49:06.741Z,10.9
2017-02-19T22:51:30.105Z,10.94
2017-02-19T22:53:53.391Z,10.84
2017-02-19T22:56:16.948Z,10.9
2017-02-19T22:58:40.203Z,10.92
2017-02-19T23:01:03.562Z,10.57
2017-02-19T23:03:27.526Z,10.69
2017-02-19T23:05:51.859Z,10.87
2017-02-19T23:08:15.443Z,10.9
2017-02-19T23:10:45.739Z,10.95
2017-02-19T23:13:09.069Z,10.8
2017-02-19T23:15:32.413Z,10.98
2017-02-19T23:17:55.816Z,11
2017-02-19T23:20:06.453Z,10.97
2017-02-19T23:22:30.014Z,10.83
2017-02-19T23:24:54.882Z,10.8
2017-02-19T23:26:31.172Z,10.84
2017-02-19T23:28:54.774Z,10.72
2017-02-19T23:31:18.688Z,10.77
2017-02-19T23:33:41.784Z,10.61
2017-02-19T23:36:05.301Z,10.57
2017-02-19T23:38:28.792Z,10.53
2017-02-19T23:40:51.977Z,10.45
2017-02-19T23:43:15.338Z,10.43
2017-02-19T23:45:38.871Z,10.43
2017-02-19T23:48:04.053Z,10.43
2017-02-19T23:50:21.035Z,10.18
2017-02-19T23:52:44.257Z,10.33
2017-02-19T23:55:07.647Z,10.27
2017-02-19T23:57:31.299Z,10.39
2017-02-19T23:59:55.065Z,10.28
